Time;durP1;ratioP1;P1;durP2;ratioP2;P2;SDS_P1;SDS_P2;PMS_P1;PMS_P2;Temp;Humidity;BMP_temperature;BMP_pressure;BME280_temperature;BME280_humidity;BME280_pressure;Samples;Min_cycle;Max_cycle;Signal;HPM_P1;HPM_P2
2022/12/21 00:01:54;;;;;;;32.88;19.92;;;;;;;-0.72;49.99;94789.53;4992604;28;20121;-74
2022/12/21 00:04:19;;;;;;;30.17;19.27;;;;;;;-0.77;49.72;94767.69;4985280;28;20511;-74
2022/12/21 00:06:45;;;;;;;29.92;18.05;;;;;;;-0.61;49.63;94782.75;4992705;28;20045;-74
2022/12/21 00:09:13;;;;;;;26.80;17.10;;;;;;;-0.77;49.72;94768.47;4992316;28;20033;-75
2022/12/21 00:11:38;;;;;;;30.27;17.27;;;;;;;-0.84;49.80;94762.56;4989407;28;20112;-74
2022/12/21 00:14:05;;;;;;;22.17;14.13;;;;;;;-0.72;49.94;94786.09;4991933;28;20839;-74
2022/12/21 00:16:33;;;;;;;29.80;15.25;;;;;;;-0.69;49.72;94790.91;5006664;28;20034;-75
2022/12/21 00:18:59;;;;;;;25.13;15.45;;;;;;;-0.78;49.97;94787.00;4989014;28;20229;-74
2022/12/21 00:21:28;;;;;;;29.73;16.23;;;;;;;-0.90;50.36;94784.31;4990118;28;20030;-74
2022/12/21 00:23:58;;;;;;;31.55;15.40;;;;;;;-0.98;50.41;94776.78;4996079;28;20033;-75
2022/12/21 00:26:24;;;;;;;24.55;15.10;;;;;;;-1.03;50.44;94767.00;4990443;28;20496;-74
2022/12/21 00:28:53;;;;;;;26.48;15.50;;;;;;;-0.93;50.53;94768.28;4989593;28;20641;-74
2022/12/21 00:31:21;;;;;;;25.08;16.90;;;;;;;-0.90;50.33;94767.84;4990716;28;20547;-75
2022/12/21 00:33:47;;;;;;;23.63;15.95;;;;;;;-0.83;50.32;94784.25;4985603;28;20033;-75
2022/12/21 00:36:17;;;;;;;27.33;15.52;;;;;;;-0.79;50.07;94778.38;4994747;28;20032;-74
2022/12/21 00:38:43;;;;;;;25.20;16.38;;;;;;;-0.92;50.29;94767.28;4991478;28;20738;-74
2022/12/21 00:41:12;;;;;;;27.90;18.35;;;;;;;-1.02;50.70;94763.34;4997147;28;20570;-74
2022/12/21 00:43:38;;;;;;;31.80;21.10;;;;;;;-0.87;50.56;94767.44;4991910;28;20045;-73
2022/12/21 00:46:04;;;;;;;28.98;19.10;;;;;;;-0.89;50.03;94759.00;4996031;28;20034;-74
2022/12/21 00:48:31;;;;;;;28.48;16.70;;;;;;;-0.91;50.26;94758.41;4995684;28;20111;-75
2022/12/21 00:51:10;;;;;;;26.60;15.07;;;;;;;-0.87;50.69;94757.75;4997684;28;20029;-74
2022/12/21 00:53:36;;;;;;;27.33;16.73;;;;;;;-0.89;50.06;94757.19;4993349;28;20048;-74
2022/12/21 00:56:03;;;;;;;30.35;16.48;;;;;;;-0.92;50.14;94754.22;4997104;28;20039;-74
2022/12/21 00:58:30;;;;;;;30.92;16.90;;;;;;;-0.80;50.20;94745.41;4992710;28;20093;-74
2022/12/21 01:00:57;;;;;;;33.70;19.48;;;;;;;-0.70;49.70;94743.09;4994442;28;20030;-74
2022/12/21 01:03:24;;;;;;;32.70;18.20;;;;;;;-0.85;49.96;94729.59;4990582;28;20631;-74
2022/12/21 01:05:51;;;;;;;30.48;18.10;;;;;;;-0.97;49.92;94721.69;4993532;28;20456;-74
2022/12/21 01:08:18;;;;;;;26.60;16.88;;;;;;;-0.96;50.20;94738.97;4990351;28;20080;-75
2022/12/21 01:10:44;;;;;;;28.55;17.90;;;;;;;-1.08;50.45;94724.28;4993694;28;20037;-74
2022/12/21 01:13:10;;;;;;;29.77;18.20;;;;;;;-0.96;50.41;94731.13;4990338;28;20033;-75
2022/12/21 01:15:43;;;;;;;26.80;19.25;;;;;;;-0.79;50.12;94738.38;4986182;28;20387;-74
2022/12/21 01:18:09;;;;;;;32.08;18.80;;;;;;;-0.98;50.27;94735.81;4993697;28;20029;-74
2022/12/21 01:20:39;;;;;;;27.38;17.55;;;;;;;-0.99;50.42;94733.41;4996028;28;20160;-74
2022/12/21 01:23:05;;;;;;;28.95;17.48;;;;;;;-0.98;50.48;94735.81;4990262;28;20030;-74
2022/12/21 01:25:31;;;;;;;26.05;17.60;;;;;;;-0.92;50.43;94738.56;4994439;28;20033;-74
2022/12/21 01:27:56;;;;;;;30.33;16.05;;;;;;;-1.00;50.64;94727.38;4995058;28;20080;-75
2022/12/21 01:30:22;;;;;;;26.85;16.88;;;;;;;-1.00;50.54;94730.00;4994482;28;20318;-74
2022/12/21 01:32:47;;;;;;;25.40;16.65;;;;;;;-0.95;50.45;94729.31;4995299;28;20500;-74
2022/12/21 01:35:13;;;;;;;26.20;16.10;;;;;;;-0.97;50.50;94726.94;4994165;28;20053;-74
2022/12/21 01:37:38;;;;;;;26.13;16.88;;;;;;;-0.91;50.53;94729.69;4995796;28;20038;-74
2022/12/21 01:40:04;;;;;;;26.33;16.73;;;;;;;-0.97;50.71;94734.75;4995149;28;20866;-74
2022/12/21 01:42:29;;;;;;;27.15;17.23;;;;;;;-0.96;50.57;94728.53;4992988;28;20042;-74
2022/12/21 01:44:58;;;;;;;25.60;15.88;;;;;;;-0.92;50.64;94715.81;4992147;28;20172;-74
2022/12/21 01:47:28;;;;;;;24.60;15.50;;;;;;;-0.95;50.70;94719.69;4994190;28;20587;-74
2022/12/21 01:50:03;;;;;;;23.38;14.52;;;;;;;-1.11;50.79;94699.38;4993746;28;20045;-74
2022/12/21 01:52:30;;;;;;;26.75;15.68;;;;;;;-1.08;50.93;94698.97;4991928;28;20045;-74
2022/12/21 01:55:04;;;;;;;28.23;16.48;;;;;;;-1.05;50.77;94690.69;4995511;28;20128;-75
2022/12/21 01:57:32;;;;;;;26.83;16.33;;;;;;;-1.05;50.71;94695.91;4989765;28;20805;-74
2022/12/21 02:00:01;;;;;;;29.48;17.13;;;;;;;-1.01;50.68;94704.88;4996246;28;20037;-74
2022/12/21 02:02:42;;;;;;;22.90;16.10;;;;;;;-1.01;50.72;94689.22;4992892;28;20066;-74
2022/12/21 02:05:36;;;;;;;25.08;17.75;;;;;;;-1.10;50.56;94684.50;4990843;28;20034;-75
2022/12/21 02:08:03;;;;;;;25.60;16.85;;;;;;;-1.27;50.74;94671.28;4994465;28;20040;-75
2022/12/21 02:10:29;;;;;;;27.27;15.30;;;;;;;-1.10;50.88;94702.78;4990823;28;20030;-74
2022/12/21 02:13:01;;;;;;;23.00;15.38;;;;;;;-1.15;50.94;94692.22;4995719;28;20539;-75
2022/12/21 02:15:34;;;;;;;23.48;14.88;;;;;;;-1.11;50.94;94686.31;4993876;28;20139;-74
2022/12/21 02:18:12;;;;;;;27.85;18.45;;;;;;;-1.11;50.90;94695.97;4992773;28;20048;-74
2022/12/21 02:21:02;;;;;;;27.08;16.73;;;;;;;-1.02;51.10;94687.63;4973956;28;20046;-74
2022/12/21 02:24:06;;;;;;;26.48;17.30;;;;;;;-1.00;51.03;94696.03;4988291;28;20035;-74
2022/12/21 02:26:50;;;;;;;26.48;16.58;;;;;;;-1.03;50.96;94688.66;4942436;28;20062;-75
2022/12/21 02:29:34;;;;;;;25.73;18.13;;;;;;;-1.12;51.03;94681.34;4993520;28;20037;-74
2022/12/21 02:32:11;;;;;;;26.13;16.63;;;;;;;-1.17;51.17;94678.59;4993185;28;20030;-75
2022/12/21 02:34:59;;;;;;;23.92;16.42;;;;;;;-1.15;51.29;94682.56;4991857;28;20065;-75
2022/12/21 02:37:43;;;;;;;23.10;15.35;;;;;;;-1.15;51.35;94677.34;4992266;28;20112;-75
2022/12/21 02:40:26;;;;;;;28.10;14.88;;;;;;;-1.09;50.94;94686.91;4990862;28;20057;-73
2022/12/21 02:45:54;;;;;;;25.90;16.40;;;;;;;-1.02;50.89;94685.00;4992426;28;20045;-75
2022/12/21 02:48:44;;;;;;;23.38;15.88;;;;;;;-1.29;50.84;94660.25;4989410;28;20026;-74
2022/12/21 02:51:16;;;;;;;27.17;16.60;;;;;;;-1.32;51.15;94686.00;4991947;28;20109;-74
2022/12/21 02:53:42;;;;;;;20.48;13.73;;;;;;;-1.23;51.29;94685.47;4990042;28;20459;-75
2022/12/21 02:56:15;;;;;;;20.23;13.23;;;;;;;-1.32;51.32;94655.47;5007732;28;20740;-74
2022/12/21 02:58:41;;;;;;;18.25;12.20;;;;;;;-1.17;51.08;94673.38;4993466;28;20135;-73
2022/12/21 03:01:37;;;;;;;18.30;13.15;;;;;;;-1.09;50.77;94681.69;4993473;28;20038;-74
2022/12/21 03:04:10;;;;;;;18.05;12.82;;;;;;;-1.23;50.69;94669.03;4993796;28;20503;-74
2022/12/21 03:06:54;;;;;;;17.85;12.88;;;;;;;-1.09;50.57;94678.28;4991936;28;20559;-74
2022/12/21 03:09:44;;;;;;;18.45;11.77;;;;;;;-1.18;50.69;94672.56;4993195;28;20173;-73
2022/12/21 03:12:24;;;;;;;18.38;11.38;;;;;;;-1.11;51.07;94665.44;4990963;28;20053;-73
2022/12/21 03:14:55;;;;;;;21.50;13.15;;;;;;;-1.20;50.92;94666.75;4993735;28;20137;-73
2022/12/21 03:17:30;;;;;;;17.67;12.40;;;;;;;-1.22;50.76;94666.19;4989075;28;20038;-74
2022/12/21 03:20:04;;;;;;;20.65;13.20;;;;;;;-1.26;50.98;94664.22;4993942;28;20042;-73
2022/12/21 03:22:54;;;;;;;21.65;12.35;;;;;;;-1.34;51.15;94654.09;4992211;28;20042;-74
2022/12/21 03:25:32;;;;;;;20.20;12.52;;;;;;;-1.39;51.02;94644.31;4991143;28;20045;-74
2022/12/21 03:28:03;;;;;;;25.60;13.82;;;;;;;-1.26;51.00;94648.56;4993862;28;20122;-74
2022/12/21 03:30:32;;;;;;;20.25;12.75;;;;;;;-1.39;51.25;94641.69;4991789;28;20485;-74
2022/12/21 03:33:02;;;;;;;23.67;13.52;;;;;;;-1.41;51.03;94625.47;4993093;28;20029;-74
2022/12/21 03:35:30;;;;;;;24.52;13.15;;;;;;;-1.27;51.12;94636.53;4991404;28;20095;-75
2022/12/21 03:38:01;;;;;;;14.90;10.60;;;;;;;-1.29;50.96;94634.16;4993591;28;20053;-75
2022/12/21 03:40:30;;;;;;;19.48;11.35;;;;;;;-1.43;51.02;94601.41;4989422;28;20464;-75
2022/12/21 03:43:04;;;;;;;17.42;10.30;;;;;;;-1.28;50.73;94620.09;4993406;28;20033;-74
2022/12/21 03:45:42;;;;;;;17.63;10.75;;;;;;;-1.21;50.66;94620.78;4990894;28;20116;-74
2022/12/21 03:48:14;;;;;;;15.95;10.77;;;;;;;-1.29;50.73;94622.91;4993780;28;20021;-74
2022/12/21 03:50:45;;;;;;;15.75;10.57;;;;;;;-1.30;50.53;94622.09;4991926;28;20036;-75
2022/12/21 03:53:26;;;;;;;17.00;10.18;;;;;;;-1.43;50.78;94612.63;4991498;28;20048;-74
2022/12/21 03:55:53;;;;;;;18.15;10.80;;;;;;;-1.39;50.86;94620.81;4990390;28;20121;-75
2022/12/21 03:58:19;;;;;;;18.58;10.45;;;;;;;-1.51;50.96;94593.88;4993702;28;20513;-75
2022/12/21 04:01:14;;;;;;;14.25;9.35;;;;;;;-1.38;50.79;94593.72;4988095;28;20046;-75
2022/12/21 04:03:42;;;;;;;15.10;9.43;;;;;;;-1.36;50.69;94601.34;4986666;28;20046;-75
2022/12/21 04:06:18;;;;;;;18.67;10.52;;;;;;;-1.33;50.59;94612.13;4992585;28;20100;-73
2022/12/21 04:08:44;;;;;;;15.55;10.27;;;;;;;-1.37;50.64;94618.78;4990938;28;20103;-75
2022/12/21 04:12:36;;;;;;;14.13;8.60;;;;;;;-1.41;50.76;94602.75;4992420;28;20493;-75
2022/12/21 04:13:57;;;;;;;15.45;10.80;;;;;;;-1.43;50.60;94596.19;4993967;28;20649;-75
2022/12/21 04:16:22;;;;;;;16.45;11.02;;;;;;;-1.31;50.58;94594.41;4995373;28;20045;-77
2022/12/21 04:21:31;;;;;;;17.52;11.20;;;;;;;-1.21;50.57;94594.69;4996432;28;20631;-75
2022/12/21 04:29:24;;;;;;;16.83;10.50;;;;;;;-1.30;51.21;94598.63;4993050;28;20052;-76
2022/12/21 04:31:50;;;;;;;16.38;10.48;;;;;;;-1.34;50.95;94586.22;4994085;28;20030;-75
2022/12/21 04:34:15;;;;;;;16.55;10.68;;;;;;;-1.38;50.95;94585.88;4995630;28;20590;-75
2022/12/21 04:39:25;;;;;;;16.33;10.70;;;;;;;-1.34;50.96;94588.84;4996807;28;20232;-76
2022/12/21 04:41:50;;;;;;;17.95;10.85;;;;;;;-1.37;51.00;94595.31;4996739;28;20481;-75
2022/12/21 04:44:15;;;;;;;22.05;13.73;;;;;;;-1.39;51.21;94581.69;4994076;28;20042;-75
2022/12/21 04:46:41;;;;;;;19.42;12.77;;;;;;;-1.45;51.49;94582.53;4996528;28;20038;-75
2022/12/21 04:49:06;;;;;;;20.35;13.77;;;;;;;-1.52;51.70;94581.84;4994121;28;20192;-75
2022/12/21 04:51:31;;;;;;;25.50;14.00;;;;;;;-1.58;51.74;94585.31;4994028;28;20034;-75
2022/12/21 04:53:57;;;;;;;24.88;15.57;;;;;;;-1.63;51.96;94579.97;4995332;28;20049;-77
2022/12/21 04:56:22;;;;;;;20.73;12.18;;;;;;;-1.61;52.15;94573.53;4993164;28;20038;-75
2022/12/21 04:58:48;;;;;;;18.67;11.13;;;;;;;-1.65;51.61;94582.78;4992312;28;20038;-76
2022/12/21 05:01:17;;;;;;;14.50;10.43;;;;;;;-1.51;51.26;94583.44;4995619;28;20084;-75
2022/12/21 05:03:43;;;;;;;18.40;12.52;;;;;;;-1.58;51.21;94567.06;4993825;28;20042;-74
2022/12/21 05:06:09;;;;;;;21.30;13.30;;;;;;;-1.61;51.58;94567.50;4993719;28;20038;-73
2022/12/21 05:08:36;;;;;;;27.20;17.35;;;;;;;-1.55;51.92;94574.44;4995636;28;20966;-74
2022/12/21 05:11:07;;;;;;;28.80;16.48;;;;;;;-1.45;51.73;94585.97;4995127;28;20039;-76
2022/12/21 05:13:33;;;;;;;27.05;16.65;;;;;;;-1.56;52.19;94585.91;4995398;28;20612;-74
2022/12/21 05:16:05;;;;;;;29.23;16.23;;;;;;;-1.60;52.03;94579.53;4992234;28;20053;-74
2022/12/21 05:18:30;;;;;;;34.20;17.45;;;;;;;-1.48;51.76;94580.38;4992862;28;20501;-75
2022/12/21 05:20:56;;;;;;;24.55;15.98;;;;;;;-1.50;52.04;94585.00;4995322;28;20030;-74
2022/12/21 05:23:21;;;;;;;25.58;15.48;;;;;;;-1.63;51.96;94569.53;4990332;28;20042;-75
2022/12/21 05:25:46;;;;;;;23.13;14.85;;;;;;;-1.62;52.27;94582.38;4993922;28;20042;-74
2022/12/21 05:28:12;;;;;;;19.45;13.73;;;;;;;-1.62;52.18;94582.38;4994247;28;20092;-75
2022/12/21 05:30:37;;;;;;;19.73;13.55;;;;;;;-1.62;52.08;94586.78;4995484;28;20030;-75
2022/12/21 05:33:03;;;;;;;25.58;14.45;;;;;;;-1.80;51.95;94573.75;4995906;28;20033;-75
2022/12/21 05:35:28;;;;;;;20.35;12.93;;;;;;;-1.73;52.06;94584.91;4996286;28;20500;-74
2022/12/21 05:37:53;;;;;;;22.33;13.52;;;;;;;-1.75;52.10;94576.50;4994571;28;20038;-74
2022/12/21 05:40:19;;;;;;;23.00;14.18;;;;;;;-1.60;52.05;94584.72;4992288;28;20582;-74
2022/12/21 05:42:44;;;;;;;24.88;15.60;;;;;;;-1.62;52.24;94571.94;4995199;28;20030;-74
2022/12/21 05:45:10;;;;;;;26.20;15.93;;;;;;;-1.65;52.03;94563.72;4993134;28;20096;-76
2022/12/21 05:47:35;;;;;;;26.67;15.43;;;;;;;-1.78;52.09;94543.03;4995238;28;20499;-74
2022/12/21 05:50:00;;;;;;;24.10;16.15;;;;;;;-1.63;52.25;94580.75;4995984;28;20034;-76
2022/12/21 05:52:26;;;;;;;26.13;16.50;;;;;;;-1.69;52.33;94580.84;4993519;28;20130;-74
2022/12/21 05:54:51;;;;;;;29.63;16.13;;;;;;;-1.61;52.11;94575.34;4995018;28;20527;-75
2022/12/21 05:57:16;;;;;;;29.73;16.52;;;;;;;-1.77;52.27;94563.69;5008989;28;20083;-74
2022/12/21 05:59:42;;;;;;;30.13;18.08;;;;;;;-1.57;52.20;94574.69;4996173;28;20030;-73
2022/12/21 06:02:07;;;;;;;32.55;19.80;;;;;;;-1.54;52.02;94569.00;4992408;28;20558;-74
2022/12/21 06:04:33;;;;;;;29.15;17.90;;;;;;;-1.66;52.10;94576.00;4994317;28;20050;-74
2022/12/21 06:06:58;;;;;;;26.10;17.88;;;;;;;-1.73;52.25;94574.47;4991983;28;20084;-74
2022/12/21 06:09:23;;;;;;;29.38;17.55;;;;;;;-1.64;52.00;94563.50;4993847;28;20014;-75
2022/12/21 06:11:49;;;;;;;25.52;16.13;;;;;;;-1.73;51.93;94537.94;4992388;28;20469;-75
2022/12/21 06:14:14;;;;;;;33.83;19.23;;;;;;;-1.55;51.77;94569.22;4991424;28;20373;-75
2022/12/21 06:16:40;;;;;;;29.70;20.55;;;;;;;-1.50;52.00;94585.81;4991522;28;20042;-75
2022/12/21 06:19:07;;;;;;;32.20;18.73;;;;;;;-1.60;51.87;94569.88;4990150;28;20468;-74
2022/12/21 06:21:32;;;;;;;35.63;21.10;;;;;;;-1.56;52.34;94559.81;4991872;28;20060;-75
2022/12/21 06:23:58;;;;;;;32.17;22.05;;;;;;;-1.44;52.13;94563.28;4991171;28;20468;-75
2022/12/21 06:26:24;;;;;;;25.83;18.17;;;;;;;-1.68;52.16;94533.69;4990886;28;20125;-74
2022/12/21 06:28:52;;;;;;;25.05;16.92;;;;;;;-1.51;52.35;94567.78;4991255;28;20162;-75
2022/12/21 06:31:19;;;;;;;21.17;13.50;;;;;;;-1.44;52.47;94558.84;4991461;28;20089;-75
2022/12/21 06:33:44;;;;;;;20.13;13.18;;;;;;;-1.31;51.73;94546.66;4993832;28;20044;-74
2022/12/21 06:36:11;;;;;;;25.05;15.75;;;;;;;-1.25;52.18;94557.00;4993330;28;20030;-75
2022/12/21 06:38:36;;;;;;;26.42;16.45;;;;;;;-1.35;52.56;94558.53;4991367;28;20029;-74
2022/12/21 06:41:05;;;;;;;29.70;20.02;;;;;;;-1.32;53.02;94558.13;4990437;28;20711;-75
2022/12/21 06:43:32;;;;;;;36.72;25.85;;;;;;;-1.47;52.92;94548.06;4994505;28;20843;-75
2022/12/21 06:46:00;;;;;;;37.88;24.42;;;;;;;-1.45;53.39;94552.03;4988877;28;20264;-75
2022/12/21 06:48:26;;;;;;;46.88;30.08;;;;;;;-1.37;53.53;94543.13;4989616;28;20060;-75
2022/12/21 06:51:01;;;;;;;42.13;25.05;;;;;;;-1.35;53.96;94561.94;5003263;28;20034;-74
2022/12/21 06:53:29;;;;;;;55.60;35.35;;;;;;;-1.19;53.50;94571.78;4987393;28;20064;-75
2022/12/21 06:56:03;;;;;;;58.55;35.20;;;;;;;-1.21;53.21;94562.56;4983457;28;20061;-74
2022/12/21 06:58:29;;;;;;;53.90;35.70;;;;;;;-1.08;53.59;94578.88;4989782;28;20049;-76
2022/12/21 07:00:55;;;;;;;71.13;39.20;;;;;;;-1.08;53.28;94565.81;4990069;28;20059;-74
2022/12/21 07:03:21;;;;;;;68.35;39.67;;;;;;;-1.03;53.47;94559.91;4991898;28;20508;-76
2022/12/21 07:05:47;;;;;;;59.42;42.15;;;;;;;-0.99;53.68;94561.84;4993809;28;20026;-75
2022/12/21 07:08:13;;;;;;;84.28;47.15;;;;;;;-0.95;53.99;94578.66;4994150;28;20384;-75
2022/12/21 07:10:39;;;;;;;72.28;42.38;;;;;;;-0.79;54.02;94586.88;4994553;28;20526;-76
2022/12/21 07:13:04;;;;;;;73.57;42.58;;;;;;;-0.73;54.02;94596.44;4985655;28;20313;-75
2022/12/21 07:15:34;;;;;;;70.25;39.17;;;;;;;-0.76;54.18;94591.66;4985034;28;20046;-76
2022/12/21 07:17:59;;;;;;;73.82;40.05;;;;;;;-0.72;54.21;94584.97;5005905;28;20566;-76
2022/12/21 07:20:25;;;;;;;69.43;39.72;;;;;;;-0.61;54.17;94595.44;4987850;28;20048;-77
2022/12/21 07:22:50;;;;;;;68.00;38.92;;;;;;;-0.73;53.88;94570.31;4993730;28;20649;-76
2022/12/21 07:25:16;;;;;;;71.82;41.47;;;;;;;-0.57;53.68;94578.28;4988661;28;20133;-76
2022/12/21 07:27:41;;;;;;;60.88;37.25;;;;;;;-0.52;53.57;94583.63;4991351;28;20423;-76
2022/12/21 07:30:08;;;;;;;69.32;40.97;;;;;;;-0.42;53.80;94597.97;4994385;28;20116;-76
2022/12/21 07:32:33;;;;;;;68.03;38.90;;;;;;;-0.58;54.12;94594.22;4990092;28;20053;-76
2022/12/21 07:34:59;;;;;;;62.90;38.08;;;;;;;-0.46;54.07;94587.19;4990564;28;20429;-76
2022/12/21 07:37:24;;;;;;;62.63;38.78;;;;;;;-0.36;54.04;94582.19;4989304;28;20257;-73
2022/12/21 07:39:49;;;;;;;75.80;44.15;;;;;;;-0.98;55.26;94573.09;4988316;28;20024;-76
2022/12/21 07:42:15;;;;;;;72.32;44.42;;;;;;;-0.82;55.19;94574.25;4987773;28;20030;-74
2022/12/21 07:44:40;;;;;;;70.30;43.63;;;;;;;-1.24;55.86;94578.69;4990436;28;20041;-75
2022/12/21 07:47:05;;;;;;;75.18;44.38;;;;;;;-1.16;55.58;94566.09;4991325;28;20150;-75
2022/12/21 07:49:31;;;;;;;76.10;44.63;;;;;;;-1.04;54.81;94563.53;4992059;28;20685;-74
2022/12/21 07:51:56;;;;;;;67.25;42.72;;;;;;;-0.79;54.43;94558.97;4988889;28;20038;-75
2022/12/21 07:54:23;;;;;;;71.70;44.88;;;;;;;-0.51;53.80;94559.09;4990154;28;20480;-75
2022/12/21 07:56:48;;;;;;;81.05;45.45;;;;;;;-0.46;53.31;94573.31;4987646;28;20041;-75
2022/12/21 07:59:14;;;;;;;65.60;43.08;;;;;;;-0.39;53.47;94572.19;4990270;28;20038;-75
2022/12/21 08:01:39;;;;;;;71.47;43.47;;;;;;;-0.21;53.36;94579.94;4989921;28;20119;-74
2022/12/21 08:04:07;;;;;;;61.63;38.90;;;;;;;-0.34;53.17;94574.94;4989194;28;20127;-76
2022/12/21 08:06:33;;;;;;;66.00;40.55;;;;;;;-0.25;53.36;94584.03;4989503;28;20026;-75
2022/12/21 08:08:58;;;;;;;66.57;39.15;;;;;;;-0.10;52.66;94581.75;4989874;28;20128;-74
2022/12/21 08:11:24;;;;;;;62.15;37.53;;;;;;;-0.18;52.83;94563.78;4988404;28;20049;-75
2022/12/21 08:13:49;;;;;;;70.03;38.10;;;;;;;0.12;52.60;94578.53;4988946;28;20030;-74
2022/12/21 08:16:17;;;;;;;58.08;35.95;;;;;;;0.20;51.73;94573.75;4990326;28;20046;-75
2022/12/21 08:18:43;;;;;;;66.95;37.88;;;;;;;-0.05;52.18;94561.97;4991717;28;20744;-74
2022/12/21 08:21:09;;;;;;;58.15;36.88;;;;;;;-0.11;52.64;94559.22;4990327;28;20022;-75
2022/12/21 08:23:34;;;;;;;65.15;41.85;;;;;;;0.05;52.43;94556.94;4989981;28;20472;-74
2022/12/21 08:26:05;;;;;;;65.00;39.53;;;;;;;0.22;52.02;94548.16;5003824;28;20472;-74
2022/12/21 08:28:31;;;;;;;65.25;40.78;;;;;;;0.25;52.20;94546.91;4990193;28;20042;-75
2022/12/21 08:31:08;;;;;;;75.05;42.03;;;;;;;0.37;52.19;94547.66;4990295;28;20122;-74
2022/12/21 08:33:34;;;;;;;66.95;40.70;;;;;;;0.16;52.44;94543.03;4988777;28;20026;-75
2022/12/21 08:35:59;;;;;;;63.03;38.78;;;;;;;-0.87;54.64;94553.28;4989569;28;20046;-75
2022/12/21 08:38:25;;;;;;;67.18;40.80;;;;;;;-0.80;54.77;94533.06;4991283;28;20488;-74
2022/12/21 08:40:51;;;;;;;64.70;40.00;;;;;;;-0.45;54.00;94536.50;4990784;28;20057;-75
2022/12/21 08:43:17;;;;;;;67.45;41.45;;;;;;;-0.58;54.20;94536.72;4991410;28;20436;-74
2022/12/21 08:45:44;;;;;;;72.18;44.15;;;;;;;-0.17;53.99;94526.16;4991990;28;20030;-75
2022/12/21 08:48:11;;;;;;;75.72;42.00;;;;;;;-0.01;53.25;94516.81;4991151;28;20574;-75
2022/12/21 08:50:36;;;;;;;69.13;41.40;;;;;;;-0.09;52.93;94512.72;4989814;28;20803;-74
2022/12/21 08:53:01;;;;;;;71.55;43.90;;;;;;;0.03;52.28;94504.88;4989277;28;20125;-74
2022/12/21 08:55:27;;;;;;;70.68;41.47;;;;;;;0.15;52.41;94510.88;4989537;28;20803;-75
2022/12/21 08:57:52;;;;;;;73.07;42.67;;;;;;;0.21;52.21;94501.28;4991529;28;20555;-75
2022/12/21 09:00:18;;;;;;;70.13;42.88;;;;;;;0.57;51.47;94502.75;4994679;28;20043;-75
2022/12/21 09:02:43;;;;;;;69.68;44.40;;;;;;;-0.00;52.26;94494.06;4997247;28;20044;-75
2022/12/21 09:05:09;;;;;;;71.07;41.25;;;;;;;0.26;52.42;94496.16;4991570;28;20042;-75
2022/12/21 09:07:35;;;;;;;72.55;42.63;;;;;;;0.17;52.29;94472.19;4995865;28;20508;-74
2022/12/21 09:10:00;;;;;;;68.28;44.00;;;;;;;0.49;51.87;94484.84;4991578;28;20044;-75
2022/12/21 09:12:27;;;;;;;71.00;42.05;;;;;;;0.91;51.51;94493.16;4992594;28;20131;-76
2022/12/21 09:14:52;;;;;;;78.35;41.95;;;;;;;1.00;51.28;94478.63;4989560;28;20050;-76
2022/12/21 09:17:18;;;;;;;68.20;43.42;;;;;;;0.97;51.17;94490.41;4992337;28;20040;-76
2022/12/21 09:19:43;;;;;;;69.22;41.80;;;;;;;1.02;51.16;94469.53;4993080;28;20042;-75
2022/12/21 09:22:09;;;;;;;71.22;44.42;;;;;;;1.22;50.50;94469.84;4994450;28;20068;-74
2022/12/21 09:24:34;;;;;;;75.05;44.25;;;;;;;1.13;50.63;94457.38;4986226;28;20033;-75
2022/12/21 09:26:59;;;;;;;71.03;45.28;;;;;;;1.19;50.33;94453.78;4991197;28;20041;-76
2022/12/21 09:29:25;;;;;;;75.45;44.35;;;;;;;1.52;49.45;94437.25;5008348;28;20172;-75
2022/12/21 09:31:51;;;;;;;67.20;45.67;;;;;;;1.63;49.72;94449.44;4984576;28;20038;-75
2022/12/21 09:34:17;;;;;;;71.20;44.78;;;;;;;1.64;49.88;94443.19;4988271;28;20099;-75
2022/12/21 09:36:44;;;;;;;70.63;43.17;;;;;;;1.02;51.03;94453.00;4989746;28;20050;-75
2022/12/21 09:39:09;;;;;;;68.95;41.80;;;;;;;0.97;51.49;94431.97;4985784;28;20030;-76
2022/12/21 09:41:53;;;;;;;66.65;43.10;;;;;;;1.18;50.98;94439.13;4991040;28;20080;-75
2022/12/21 09:44:50;;;;;;;65.22;40.63;;;;;;;1.15;51.05;94439.59;4992190;28;20500;-75
2022/12/21 09:47:25;;;;;;;73.93;41.60;;;;;;;1.29;50.70;94424.31;4989328;28;20102;-76
2022/12/21 09:49:59;;;;;;;68.68;42.08;;;;;;;1.19;50.97;94428.38;4991249;28;20034;-75
2022/12/21 09:52:34;;;;;;;75.28;41.50;;;;;;;1.58;50.01;94437.06;4991408;28;20041;-76
2022/12/21 09:55:05;;;;;;;67.00;39.30;;;;;;;1.53;49.04;94408.16;4991047;28;20048;-76
2022/12/21 09:57:34;;;;;;;61.83;37.40;;;;;;;1.86;48.91;94419.59;4996594;28;20033;-76
2022/12/21 10:00:00;;;;;;;73.47;37.67;;;;;;;1.80;49.22;94424.00;4992128;28;20124;-76
2022/12/21 10:03:05;;;;;;;60.53;38.60;;;;;;;1.98;48.43;94410.59;4993889;28;20435;-76
2022/12/21 10:05:48;;;;;;;54.13;35.92;;;;;;;2.25;47.68;94401.97;4998659;28;20075;-76
2022/12/21 10:08:44;;;;;;;62.90;37.75;;;;;;;2.15;47.66;94410.53;4991014;28;20092;-76
2022/12/21 10:11:39;;;;;;;66.70;38.58;;;;;;;2.03;47.97;94396.75;4987582;28;20477;-74
2022/12/21 10:14:23;;;;;;;62.10;37.40;;;;;;;2.15;48.04;94389.53;4984203;28;20042;-75
2022/12/21 10:17:07;;;;;;;67.45;42.03;;;;;;;2.34;47.79;94388.16;4989588;28;20037;-75
2022/12/21 10:19:48;;;;;;;65.38;41.10;;;;;;;2.45;47.16;94379.34;4983666;28;20465;-76
2022/12/21 10:22:36;;;;;;;72.13;45.35;;;;;;;2.05;47.37;94357.94;4988936;28;20046;-76
2022/12/21 10:25:11;;;;;;;62.08;37.22;;;;;;;2.08;47.89;94370.56;4987887;28;20046;-75
2022/12/21 10:28:10;;;;;;;67.22;40.63;;;;;;;2.06;47.99;94354.25;4989976;28;20065;-76
2022/12/21 10:30:38;;;;;;;62.30;40.22;;;;;;;1.89;48.62;94354.38;4983395;28;20045;-73
2022/12/21 10:33:11;;;;;;;58.90;38.05;;;;;;;1.88;48.02;94331.00;4995393;28;20406;-74
2022/12/21 10:35:39;;;;;;;53.00;31.60;;;;;;;2.07;47.66;94350.59;4996931;28;20038;-74
2022/12/21 10:38:27;;;;;;;47.40;31.77;;;;;;;1.41;49.04;94336.72;4991398;28;20042;-75
2022/12/21 10:40:55;;;;;;;49.72;28.58;;;;;;;1.85;48.17;94339.34;4990170;28;20042;-75
2022/12/21 10:43:21;;;;;;;43.30;26.52;;;;;;;1.76;48.43;94359.16;4994322;28;20034;-74
2022/12/21 10:45:48;;;;;;;43.90;25.92;;;;;;;2.41;48.11;94346.75;4993058;28;20410;-75
2022/12/21 10:48:13;;;;;;;50.35;27.23;;;;;;;2.64;47.08;94329.09;4995310;28;20124;-74
2022/12/21 10:50:43;;;;;;;44.60;27.52;;;;;;;2.20;47.32;94345.00;4994686;28;20432;-74
2022/12/21 10:53:27;;;;;;;48.00;28.17;;;;;;;2.37;47.19;94348.28;4992164;28;20061;-76
2022/12/21 10:55:59;;;;;;;42.05;28.58;;;;;;;1.82;48.19;94342.44;4992153;28;20026;-76
2022/12/21 10:58:31;;;;;;;39.90;28.13;;;;;;;2.45;47.16;94337.31;4992762;28;20050;-75
2022/12/21 11:01:02;;;;;;;56.22;31.75;;;;;;;2.54;46.78;94314.06;4993651;28;20504;-76
2022/12/21 11:03:31;;;;;;;42.50;29.08;;;;;;;2.60;46.75;94325.38;4992862;28;20153;-75
2022/12/21 11:05:57;;;;;;;131.52;64.95;;;;;;;2.53;47.15;94312.47;4995126;28;20034;-75
2022/12/21 11:08:30;;;;;;;52.13;31.65;;;;;;;2.52;47.10;94319.53;4992090;28;20342;-75
2022/12/21 11:11:01;;;;;;;43.17;28.35;;;;;;;1.95;47.78;94326.34;4993336;28;20514;-75
2022/12/21 11:13:29;;;;;;;52.30;27.95;;;;;;;2.06;48.25;94328.03;4991192;28;20037;-76
2022/12/21 11:16:00;;;;;;;46.97;28.77;;;;;;;2.19;47.77;94314.53;4990985;28;20045;-75
2022/12/21 11:18:34;;;;;;;43.50;28.15;;;;;;;2.53;47.28;94307.22;4993051;28;20042;-73
2022/12/21 11:21:01;;;;;;;52.00;29.58;;;;;;;2.66;46.52;94301.53;4991463;28;20527;-74
2022/12/21 11:23:27;;;;;;;45.35;27.67;;;;;;;2.50;47.04;94303.22;4992023;28;20049;-74
2022/12/21 11:25:54;;;;;;;38.10;26.33;;;;;;;2.73;47.00;94296.06;4992950;28;20030;-73
2022/12/21 11:28:21;;;;;;;57.00;28.98;;;;;;;3.01;46.14;94290.47;4989456;28;20518;-73
2022/12/21 11:30:55;;;;;;;44.92;26.75;;;;;;;3.05;45.71;94291.53;4991726;28;20056;-73
2022/12/21 11:33:21;;;;;;;51.88;27.02;;;;;;;3.04;45.71;94282.06;5006712;28;20022;-73
2022/12/21 11:36:14;;;;;;;43.50;27.73;;;;;;;3.27;45.47;94281.69;4989979;28;20040;-74
2022/12/21 11:38:40;;;;;;;46.60;26.02;;;;;;;3.29;44.88;94287.47;4995740;28;20033;-73
2022/12/21 11:41:18;;;;;;;43.88;28.25;;;;;;;3.48;44.94;94279.16;4992057;28;20049;-75
2022/12/21 11:43:45;;;;;;;43.35;26.23;;;;;;;3.76;44.61;94278.72;4986692;28;20999;-75
2022/12/21 11:46:19;;;;;;;43.40;28.40;;;;;;;3.81;44.25;94270.84;4993031;28;20573;-73